Time;durP1;ratioP1;P1;durP2;ratioP2;P2;SDS_P1;SDS_P2;PMS_P1;PMS_P2;Temp;Humidity;BMP_temperature;BMP_pressure;BME280_temperature;BME280_humidity;BME280_pressure;Samples;Min_cycle;Max_cycle;Signal;HPM_P1;HPM_P2
2023/04/05 00:00:32;;;;;;;8.50;6.93;;;2.00;99.90;;;;;;4997697;28;20182;-73
2023/04/05 00:03:01;;;;;;;7.27;6.63;;;2.00;99.90;;;;;;4988721;28;20427;-73
2023/04/05 00:05:29;;;;;;;9.60;7.57;;;2.00;99.90;;;;;;4988541;28;20537;-73
2023/04/05 00:08:00;;;;;;;7.50;6.80;;;2.00;99.90;;;;;;4997490;28;20466;-73
2023/04/05 00:10:26;;;;;;;7.80;7.10;;;2.10;99.90;;;;;;4997380;28;20525;-73
2023/04/05 00:12:52;;;;;;;8.57;7.20;;;2.10;99.90;;;;;;4986514;28;20438;-73
2023/04/05 00:15:18;;;;;;;9.73;7.40;;;2.10;99.90;;;;;;5000313;28;20458;-73
2023/04/05 00:17:44;;;;;;;8.43;7.60;;;2.10;99.90;;;;;;4983446;28;20219;-73
2023/04/05 00:20:10;;;;;;;7.43;6.80;;;2.10;99.90;;;;;;4982031;28;20273;-73
2023/04/05 00:22:37;;;;;;;7.63;7.03;;;2.10;99.90;;;;;;4990992;28;20435;-73
2023/04/05 00:25:05;;;;;;;6.97;6.27;;;2.00;99.90;;;;;;4991712;28;20506;-73
2023/04/05 00:27:30;;;;;;;8.87;7.47;;;2.00;99.90;;;;;;5004746;28;20450;-73
2023/04/05 00:29:56;;;;;;;9.63;7.80;;;2.00;99.90;;;;;;4990446;28;20447;-73
2023/04/05 00:32:22;;;;;;;9.80;7.27;;;2.00;99.90;;;;;;4992565;28;20176;-73
2023/04/05 00:34:48;;;;;;;9.87;7.43;;;2.00;99.90;;;;;;4983288;28;20223;-73
2023/04/05 00:37:14;;;;;;;8.90;7.20;;;2.00;99.90;;;;;;4986221;28;20226;-73
2023/04/05 00:39:40;;;;;;;12.73;8.83;;;2.00;99.90;;;;;;4999104;28;20473;-73
2023/04/05 00:42:06;;;;;;;14.40;7.77;;;2.00;99.90;;;;;;5010295;28;20241;-73
2023/04/05 00:44:35;;;;;;;8.27;7.17;;;2.00;99.90;;;;;;4990612;28;20474;-73
2023/04/05 00:47:02;;;;;;;7.83;7.10;;;2.00;99.90;;;;;;5000225;28;20446;-73
2023/04/05 00:49:35;;;;;;;8.37;7.43;;;2.00;99.90;;;;;;4988611;28;20488;-73
2023/04/05 00:52:01;;;;;;;7.30;6.53;;;1.90;99.90;;;;;;4989071;28;20435;-73
2023/04/05 00:54:31;;;;;;;9.10;7.30;;;1.90;99.90;;;;;;4980014;28;20445;-73
2023/04/05 00:56:58;;;;;;;8.10;7.13;;;1.80;99.90;;;;;;4990221;28;20980;-73
2023/04/05 00:59:24;;;;;;;8.37;6.77;;;1.80;99.90;;;;;;4985581;28;20534;-73
2023/04/05 01:01:59;;;;;;;7.40;6.67;;;1.70;99.90;;;;;;4999870;28;20444;-73
2023/04/05 01:04:26;;;;;;;7.70;6.60;;;1.70;99.90;;;;;;5001605;28;20465;-73
2023/04/05 01:07:30;;;;;;;8.67;7.13;;;1.70;99.90;;;;;;4993594;28;20814;-73
2023/04/05 01:09:58;;;;;;;6.67;5.97;;;1.70;99.90;;;;;;4988000;28;20438;-73
2023/04/05 01:12:31;;;;;;;7.77;7.00;;;1.70;99.90;;;;;;5010006;28;20537;-73
2023/04/05 01:14:57;;;;;;;9.63;8.13;;;1.70;99.90;;;;;;4999798;28;20978;-73
2023/04/05 01:17:27;;;;;;;10.33;9.03;;;1.70;99.90;;;;;;4989678;28;20450;-73
2023/04/05 01:19:57;;;;;;;9.40;7.60;;;1.70;99.90;;;;;;4980190;28;20267;-73
2023/04/05 01:22:37;;;;;;;10.17;7.80;;;1.70;99.90;;;;;;5004631;28;20457;-73
2023/04/05 01:25:09;;;;;;;9.10;7.47;;;1.70;99.90;;;;;;4983968;28;21189;-73
2023/04/05 01:27:53;;;;;;;8.47;7.67;;;1.70;99.90;;;;;;4996557;28;20452;-73
2023/04/05 01:30:22;;;;;;;10.50;7.13;;;1.60;99.90;;;;;;4994124;28;20431;-73
2023/04/05 01:33:13;;;;;;;10.13;8.27;;;1.60;99.90;;;;;;4994435;28;20438;-73
2023/04/05 01:35:59;;;;;;;8.60;7.23;;;1.50;99.90;;;;;;4982101;28;20474;-73
2023/04/05 01:38:27;;;;;;;9.40;7.30;;;1.40;99.90;;;;;;4981841;28;20449;-73
2023/04/05 01:40:53;;;;;;;7.53;6.83;;;1.40;99.90;;;;;;4999034;28;20516;-73
2023/04/05 01:43:19;;;;;;;9.47;7.83;;;1.40;99.90;;;;;;5007098;28;20467;-73
2023/04/05 01:45:45;;;;;;;7.70;6.90;;;1.30;99.90;;;;;;4994363;28;20458;-73
2023/04/05 01:48:11;;;;;;;10.37;7.93;;;1.40;99.90;;;;;;4995395;28;20175;-73
2023/04/05 01:50:37;;;;;;;8.57;6.60;;;1.40;99.90;;;;;;4993322;28;20436;-72
2023/04/05 01:53:03;;;;;;;11.43;7.13;;;1.40;99.90;;;;;;4983882;28;20813;-73
2023/04/05 01:55:28;;;;;;;7.57;6.90;;;1.40;99.90;;;;;;4996445;28;20202;-73
2023/04/05 01:57:55;;;;;;;10.33;7.17;;;1.40;99.90;;;;;;4998104;28;20193;-73
2023/04/05 02:00:21;;;;;;;8.30;7.47;;;1.30;99.90;;;;;;4991817;28;20704;-73
2023/04/05 02:02:47;;;;;;;9.67;8.73;;;1.30;99.90;;;;;;4998257;28;20434;-73
2023/04/05 02:05:13;;;;;;;10.70;7.13;;;1.20;99.90;;;;;;4997179;28;20484;-73
2023/04/05 02:07:38;;;;;;;8.40;7.60;;;1.20;99.90;;;;;;4984487;28;20199;-73
2023/04/05 02:10:04;;;;;;;7.33;6.73;;;1.20;99.90;;;;;;5002826;28;20205;-73
2023/04/05 02:12:30;;;;;;;10.23;8.80;;;1.20;99.90;;;;;;5000388;28;20700;-73
2023/04/05 02:14:56;;;;;;;10.27;7.60;;;1.20;99.90;;;;;;4999441;28;20544;-72
2023/04/05 02:17:21;;;;;;;8.27;7.20;;;1.10;99.90;;;;;;4988911;28;20185;-73
2023/04/05 02:19:48;;;;;;;8.80;7.13;;;1.10;99.90;;;;;;4995093;28;20638;-73
2023/04/05 02:22:14;;;;;;;8.20;7.40;;;1.10;99.90;;;;;;4993707;28;20213;-73
2023/04/05 02:24:40;;;;;;;8.00;6.83;;;1.10;99.90;;;;;;4998126;28;20849;-73
2023/04/05 02:27:06;;;;;;;8.53;7.40;;;1.10;99.90;;;;;;5001070;28;20179;-73
2023/04/05 02:29:31;;;;;;;9.50;8.47;;;1.10;99.90;;;;;;5010975;28;20452;-73
2023/04/05 02:31:57;;;;;;;7.33;6.67;;;1.10;99.90;;;;;;4993747;28;20927;-73
2023/04/05 02:34:23;;;;;;;11.83;8.00;;;1.10;99.90;;;;;;5006776;28;20183;-73
2023/04/05 02:36:52;;;;;;;8.33;7.30;;;1.10;99.90;;;;;;4989542;28;20269;-73
2023/04/05 02:39:18;;;;;;;7.90;7.10;;;1.10;99.90;;;;;;4979022;28;20242;-73
2023/04/05 02:41:44;;;;;;;8.93;7.87;;;1.10;99.90;;;;;;4992849;28;20518;-73
2023/04/05 02:44:10;;;;;;;12.87;9.47;;;1.00;99.90;;;;;;4985070;28;20468;-73
2023/04/05 02:46:36;;;;;;;9.00;7.83;;;1.00;99.90;;;;;;4996637;28;20931;-73
2023/04/05 02:49:01;;;;;;;9.57;8.33;;;0.90;99.90;;;;;;4991108;28;20172;-73
2023/04/05 02:51:27;;;;;;;10.67;7.50;;;0.90;99.90;;;;;;4995153;28;20278;-73
2023/04/05 02:53:52;;;;;;;11.30;8.67;;;0.90;99.90;;;;;;4997621;28;20182;-73
2023/04/05 02:56:18;;;;;;;10.40;8.10;;;0.90;99.90;;;;;;4979139;28;20576;-73
2023/04/05 02:58:44;;;;;;;11.43;7.23;;;0.90;99.90;;;;;;4994803;28;20180;-73
2023/04/05 03:01:10;;;;;;;8.57;7.30;;;0.80;99.90;;;;;;4982636;28;20184;-73
2023/04/05 03:03:36;;;;;;;10.20;7.30;;;0.80;99.90;;;;;;4996648;28;20457;-73
2023/04/05 03:06:10;;;;;;;9.67;7.53;;;0.80;99.90;;;;;;4991755;28;20219;-73
2023/04/05 03:08:43;;;;;;;12.07;7.67;;;0.80;99.90;;;;;;4994416;28;21011;-73
2023/04/05 03:11:10;;;;;;;9.43;8.40;;;0.80;99.90;;;;;;4991658;28;20441;-73
2023/04/05 03:13:36;;;;;;;8.13;6.87;;;0.80;99.90;;;;;;4993252;28;20572;-73
2023/04/05 03:16:02;;;;;;;9.07;7.90;;;0.80;99.90;;;;;;4984796;28;20542;-73
2023/04/05 03:18:30;;;;;;;10.90;7.80;;;0.70;99.90;;;;;;4982759;28;20441;-73
2023/04/05 03:20:57;;;;;;;10.73;9.20;;;0.70;99.90;;;;;;4986168;28;20445;-73
2023/04/05 03:23:27;;;;;;;11.03;7.47;;;0.70;99.90;;;;;;4986397;28;20458;-73
2023/04/05 03:25:55;;;;;;;10.43;8.80;;;0.70;99.90;;;;;;4987782;28;21003;-72
2023/04/05 03:28:22;;;;;;;8.83;7.30;;;0.70;99.90;;;;;;4982990;28;20795;-73
2023/04/05 03:30:47;;;;;;;8.37;7.50;;;0.60;99.90;;;;;;4996600;28;20518;-73
2023/04/05 03:33:13;;;;;;;19.00;8.23;;;0.60;99.90;;;;;;4983552;28;20466;-73
2023/04/05 03:35:38;;;;;;;8.90;8.00;;;0.60;99.90;;;;;;5008386;23;20210;-69
2023/04/05 03:38:04;;;;;;;9.97;8.07;;;0.60;99.90;;;;;;5005155;28;20250;-71
2023/04/05 03:40:30;;;;;;;8.77;7.90;;;0.60;99.90;;;;;;5004198;28;20182;-69
2023/04/05 03:42:55;;;;;;;10.70;9.60;;;0.50;99.90;;;;;;5009510;28;20183;-69
2023/04/05 03:45:21;;;;;;;11.57;9.00;;;0.50;99.90;;;;;;5011085;28;20215;-70
2023/04/05 03:47:46;;;;;;;9.63;8.50;;;0.50;99.90;;;;;;5000998;28;20709;-69
2023/04/05 03:50:12;;;;;;;8.27;7.37;;;0.40;99.90;;;;;;5005815;28;20182;-69
2023/04/05 03:52:37;;;;;;;10.53;8.23;;;0.40;99.90;;;;;;4991260;28;20282;-70
2023/04/05 03:55:04;;;;;;;11.37;8.40;;;0.40;99.90;;;;;;5005405;28;20739;-69
2023/04/05 03:57:30;;;;;;;8.73;7.83;;;0.40;99.90;;;;;;5003379;28;20593;-69
2023/04/05 03:59:55;;;;;;;8.63;7.47;;;0.30;99.90;;;;;;4989838;28;20446;-69
2023/04/05 04:02:21;;;;;;;13.77;8.17;;;0.30;99.90;;;;;;4989651;28;20446;-69
2023/04/05 04:04:46;;;;;;;9.17;8.27;;;0.30;99.90;;;;;;4996586;28;20215;-70
2023/04/05 04:07:13;;;;;;;11.20;8.83;;;0.20;99.90;;;;;;5004039;28;20300;-69
2023/04/05 04:09:39;;;;;;;11.13;8.37;;;0.20;99.90;;;;;;4995307;28;20171;-69
2023/04/05 04:12:04;;;;;;;8.73;7.70;;;0.10;99.90;;;;;;5010130;28;20434;-70
2023/04/05 04:14:31;;;;;;;10.20;7.43;;;0.10;99.90;;;;;;4991883;28;20484;-69
2023/04/05 04:16:57;;;;;;;13.13;8.50;;;0.10;99.90;;;;;;4990891;28;20235;-69
2023/04/05 04:19:22;;;;;;;9.33;8.43;;;0.10;99.90;;;;;;4990167;28;20528;-69
2023/04/05 04:21:50;;;;;;;11.33;8.40;;;0.10;99.90;;;;;;5000668;28;20191;-69
2023/04/05 04:24:17;;;;;;;8.17;7.37;;;0.10;99.90;;;;;;4991492;28;20719;-69
2023/04/05 04:26:44;;;;;;;8.43;7.60;;;0.10;99.90;;;;;;4993550;28;20469;-69
2023/04/05 04:29:11;;;;;;;8.63;7.73;;;0.10;99.90;;;;;;5003095;28;20485;-69
2023/04/05 04:31:38;;;;;;;10.53;7.40;;;0.00;99.90;;;;;;4993814;28;20496;-70
2023/04/05 04:34:04;;;;;;;9.93;8.37;;;0.00;99.90;;;;;;5001985;28;20443;-69
2023/04/05 04:36:38;;;;;;;11.90;8.83;;;0.00;99.90;;;;;;4980776;28;20511;-69
2023/04/05 04:39:07;;;;;;;9.80;7.63;;;0.00;99.90;;;;;;4985479;28;20501;-69
2023/04/05 04:41:32;;;;;;;11.23;9.07;;;-0.10;99.90;;;;;;4999235;28;20520;-69
2023/04/05 04:44:01;;;;;;;11.40;8.30;;;-0.20;99.90;;;;;;4998339;28;20552;-69
2023/04/05 04:46:29;;;;;;;11.50;8.63;;;-0.20;99.90;;;;;;4997389;28;20242;-69
2023/04/05 04:48:58;;;;;;;12.17;9.17;;;-0.20;99.90;;;;;;4990817;28;20458;-69
2023/04/05 04:51:23;;;;;;;10.43;8.47;;;-0.20;99.90;;;;;;4989713;28;20943;-69
2023/04/05 04:53:49;;;;;;;9.33;8.43;;;-0.20;99.90;;;;;;4999196;28;20493;-69
2023/04/05 04:56:14;;;;;;;11.10;9.90;;;-0.20;99.90;;;;;;4992291;28;20214;-68
2023/04/05 04:58:40;;;;;;;9.87;8.70;;;-0.20;99.90;;;;;;4992245;28;20187;-70
2023/04/05 05:01:09;;;;;;;11.17;9.10;;;-0.30;99.90;;;;;;4984228;28;20184;-69
2023/04/05 05:03:38;;;;;;;10.87;8.87;;;-0.30;99.90;;;;;;4990104;28;20299;-69
2023/04/05 05:06:04;;;;;;;9.63;7.30;;;-0.20;99.90;;;;;;4985878;28;20455;-69
2023/04/05 05:08:30;;;;;;;9.93;8.87;;;-0.20;99.90;;;;;;4990675;28;20986;-69
2023/04/05 05:10:55;;;;;;;8.63;7.27;;;-0.20;99.90;;;;;;4991244;28;20484;-70
2023/04/05 05:13:21;;;;;;;9.47;7.87;;;-0.20;99.90;;;;;;4990290;28;20474;-70
2023/04/05 05:15:47;;;;;;;11.77;8.50;;;-0.20;99.90;;;;;;4998273;28;20245;-70
2023/04/05 05:18:13;;;;;;;10.40;9.40;;;-0.20;99.90;;;;;;5000793;28;20811;-70
2023/04/05 05:20:40;;;;;;;9.87;8.83;;;-0.20;99.90;;;;;;4991314;28;20439;-69
2023/04/05 05:23:05;;;;;;;9.93;8.43;;;-0.10;99.90;;;;;;4987261;28;20445;-71
2023/04/05 05:25:31;;;;;;;26.23;15.00;;;-0.10;99.90;;;;;;4990054;28;20442;-70
2023/04/05 05:27:56;;;;;;;12.50;9.33;;;0.00;99.90;;;;;;4985861;28;20187;-70
2023/04/05 05:30:22;;;;;;;13.80;11.13;;;0.10;99.90;;;;;;4990443;28;20180;-70
2023/04/05 05:32:47;;;;;;;12.93;10.27;;;0.30;99.90;;;;;;4991347;28;20266;-69
2023/04/05 05:35:13;;;;;;;13.37;10.53;;;0.50;99.90;;;;;;4989617;28;20262;-69
2023/04/05 05:37:39;;;;;;;11.03;9.17;;;0.60;99.90;;;;;;4988650;28;20216;-70
2023/04/05 05:40:05;;;;;;;15.77;10.20;;;0.70;99.90;;;;;;4996984;28;20723;-70
2023/04/05 05:42:31;;;;;;;16.77;10.30;;;0.80;99.90;;;;;;4989868;28;20211;-70
2023/04/05 05:45:01;;;;;;;13.50;10.00;;;0.90;99.90;;;;;;4989142;28;20994;-69
2023/04/05 05:47:27;;;;;;;11.90;9.20;;;1.10;99.90;;;;;;4985624;28;20458;-70
2023/04/05 05:49:52;;;;;;;13.57;10.20;;;1.30;99.90;;;;;;4990769;28;20435;-70
2023/04/05 05:52:18;;;;;;;10.60;8.90;;;1.40;99.90;;;;;;4997719;28;20188;-71
2023/04/05 05:54:43;;;;;;;11.37;9.43;;;1.60;99.90;;;;;;4992156;28;20184;-69
2023/04/05 05:57:09;;;;;;;15.23;10.37;;;1.70;99.90;;;;;;4992599;28;20210;-70
2023/04/05 05:59:34;;;;;;;12.10;9.70;;;1.90;99.90;;;;;;5002442;28;20664;-70
2023/04/05 06:02:00;;;;;;;11.27;9.80;;;2.10;99.90;;;;;;4991764;28;20199;-69
2023/04/05 06:04:27;;;;;;;9.93;8.93;;;2.30;99.90;;;;;;4992529;28;20286;-71
2023/04/05 06:06:53;;;;;;;10.57;8.80;;;2.40;99.90;;;;;;4990449;28;20203;-70
2023/04/05 06:09:19;;;;;;;12.53;9.40;;;2.50;99.90;;;;;;4988676;28;20815;-69
2023/04/05 06:11:44;;;;;;;10.43;9.40;;;2.70;99.90;;;;;;5002292;28;20187;-69
2023/04/05 06:14:10;;;;;;;12.60;9.47;;;2.80;99.90;;;;;;5003213;28;20667;-70
2023/04/05 06:16:35;;;;;;;10.87;9.77;;;2.90;99.90;;;;;;4992797;28;20203;-69
2023/04/05 06:19:01;;;;;;;10.10;9.07;;;3.00;99.90;;;;;;4991424;28;20183;-69
2023/04/05 06:21:26;;;;;;;10.70;8.83;;;3.20;99.90;;;;;;4992817;28;20661;-69
2023/04/05 06:23:52;;;;;;;9.67;8.87;;;3.30;99.90;;;;;;4992505;28;20199;-69
2023/04/05 06:26:21;;;;;;;11.13;8.80;;;3.40;99.90;;;;;;4992619;28;20575;-69
2023/04/05 06:28:47;;;;;;;12.60;9.40;;;3.50;99.90;;;;;;5004238;28;20445;-70
2023/04/05 06:31:15;;;;;;;11.87;9.97;;;3.60;99.90;;;;;;4994744;28;20939;-70
2023/04/05 06:33:41;;;;;;;10.60;9.50;;;3.80;99.90;;;;;;4991019;28;20451;-69
2023/04/05 06:36:07;;;;;;;12.03;9.67;;;4.00;99.90;;;;;;4956225;28;1019508;-69
2023/04/05 06:38:32;;;;;;;10.93;9.83;;;4.00;99.90;;;;;;4988855;28;20634;-69
2023/04/05 06:40:58;;;;;;;11.47;10.27;;;4.10;99.90;;;;;;4983732;28;20443;-70
2023/04/05 06:43:23;;;;;;;10.63;9.63;;;4.30;99.90;;;;;;5001054;28;20187;-71
2023/04/05 06:45:49;;;;;;;10.80;9.80;;;4.30;99.90;;;;;;4986728;28;20213;-69
2023/04/05 06:48:14;;;;;;;10.30;9.30;;;4.30;99.90;;;;;;4988024;28;20198;-70
2023/04/05 06:50:40;;;;;;;10.00;8.97;;;4.40;99.90;;;;;;4991949;28;20180;-68
2023/04/05 06:53:06;;;;;;;9.93;8.87;;;4.50;99.90;;;;;;4992814;28;20255;-69
2023/04/05 06:55:32;;;;;;;10.53;8.97;;;4.70;99.90;;;;;;5001900;28;20607;-69
2023/04/05 06:57:58;;;;;;;10.63;9.63;;;4.90;99.90;;;;;;4992820;28;20446;-69
2023/04/05 07:00:23;;;;;;;11.47;9.67;;;5.00;99.90;;;;;;4992079;28;20506;-69
2023/04/05 07:02:49;;;;;;;10.80;8.73;;;5.20;99.90;;;;;;4992645;28;20237;-69
2023/04/05 07:05:15;;;;;;;11.50;9.47;;;5.40;99.90;;;;;;4991706;28;20243;-69
2023/04/05 07:07:43;;;;;;;9.90;9.03;;;5.60;99.90;;;;;;4996399;28;20214;-70
2023/04/05 07:10:09;;;;;;;10.63;9.67;;;5.80;99.90;;;;;;4995141;28;20178;-70
2023/04/05 07:12:35;;;;;;;11.37;10.10;;;6.10;99.90;;;;;;4993202;28;21005;-69
2023/04/05 07:15:01;;;;;;;11.10;9.40;;;6.10;99.90;;;;;;4992920;28;20447;-70
2023/04/05 07:17:26;;;;;;;8.97;8.27;;;6.20;99.90;;;;;;4991967;28;20543;-68
2023/04/05 07:19:52;;;;;;;12.97;9.83;;;6.40;99.90;;;;;;4985707;28;20188;-68
2023/04/05 07:22:18;;;;;;;10.10;9.10;;;6.40;99.90;;;;;;4992253;28;20512;-69
2023/04/05 07:24:45;;;;;;;11.57;9.07;;;6.50;99.90;;;;;;4997891;28;20578;-69
2023/04/05 07:27:11;;;;;;;10.10;9.10;;;6.70;99.80;;;;;;4995593;28;20226;-69
2023/04/05 07:29:39;;;;;;;11.53;9.10;;;7.00;99.40;;;;;;4992081;28;20968;-69
2023/04/05 07:32:06;;;;;;;10.63;9.20;;;7.00;98.40;;;;;;5008068;28;20239;-68
2023/04/05 07:34:32;;;;;;;10.07;9.07;;;7.00;97.70;;;;;;4992653;28;20438;-68
2023/04/05 07:36:57;;;;;;;12.90;9.37;;;7.20;98.30;;;;;;4991008;28;20510;-68
2023/04/05 07:39:23;;;;;;;11.53;8.47;;;7.30;97.70;;;;;;4993652;28;20906;-71
2023/04/05 07:41:48;;;;;;;10.17;9.17;;;7.20;97.10;;;;;;4991732;28;20195;-69
2023/04/05 07:44:14;;;;;;;10.70;9.70;;;7.10;98.80;;;;;;4996155;28;20281;-69
2023/04/05 07:46:43;;;;;;;13.77;9.53;;;7.30;98.40;;;;;;5000285;28;20217;-69
2023/04/05 07:49:09;;;;;;;10.50;9.50;;;7.40;97.00;;;;;;4991481;28;20255;-69
2023/04/05 07:51:37;;;;;;;9.87;9.00;;;7.80;97.10;;;;;;4989907;28;20470;-70
2023/04/05 07:54:04;;;;;;;10.17;9.20;;;8.20;95.50;;;;;;4993318;28;20576;-70
2023/04/05 07:56:30;;;;;;;10.97;9.60;;;8.30;94.10;;;;;;4989991;28;20450;-69
2023/04/05 07:58:56;;;;;;;9.93;8.93;;;8.30;93.20;;;;;;4986411;28;20439;-67
2023/04/05 08:01:26;;;;;;;11.20;9.43;;;8.10;92.60;;;;;;4986509;28;20524;-66
2023/04/05 08:03:52;;;;;;;11.53;8.60;;;8.20;92.00;;;;;;4990732;28;20469;-67
2023/04/05 08:06:18;;;;;;;12.60;9.77;;;8.20;91.80;;;;;;4986737;28;20458;-69
2023/04/05 08:08:45;;;;;;;10.37;9.43;;;8.20;92.70;;;;;;4987188;28;20909;-70
2023/04/05 08:11:11;;;;;;;9.37;8.47;;;8.50;92.20;;;;;;4999678;28;20168;-71
2023/04/05 08:13:40;;;;;;;10.60;9.43;;;8.30;88.40;;;;;;4993462;28;20450;-67
2023/04/05 08:16:06;;;;;;;10.70;9.57;;;8.40;89.40;;;;;;4990776;28;20565;-69
2023/04/05 08:18:32;;;;;;;10.67;9.37;;;8.80;90.70;;;;;;4995057;28;20950;-69
2023/04/05 08:20:57;;;;;;;9.40;8.40;;;8.70;88.70;;;;;;4985570;28;20438;-71
2023/04/05 08:23:23;;;;;;;12.60;10.40;;;8.70;89.30;;;;;;4990040;28;20180;-69
2023/04/05 08:25:48;;;;;;;10.60;9.57;;;9.10;89.00;;;;;;4989230;28;20199;-69
2023/04/05 08:28:14;;;;;;;10.57;9.47;;;9.30;84.00;;;;;;4990807;28;20582;-68
2023/04/05 08:30:41;;;;;;;11.50;9.43;;;9.50;78.90;;;;;;4983805;28;20188;-69
2023/04/05 08:33:06;;;;;;;8.37;7.60;;;9.50;77.30;;;;;;4990013;28;20438;-69
2023/04/05 08:35:35;;;;;;;9.20;7.50;;;9.70;75.60;;;;;;4989805;28;20445;-69
2023/04/05 08:38:00;;;;;;;10.37;8.43;;;9.60;73.90;;;;;;4991607;28;20326;-70
2023/04/05 08:40:44;;;;;;;8.27;7.20;;;9.90;72.20;;;;;;4997713;28;20954;-69
2023/04/05 08:43:22;;;;;;;8.00;7.30;;;10.30;69.10;;;;;;5004070;28;20235;-69
2023/04/05 08:45:50;;;;;;;10.33;8.47;;;10.70;68.80;;;;;;4990594;28;20454;-68
2023/04/05 08:48:17;;;;;;;8.03;7.10;;;11.20;68.10;;;;;;4980862;28;20442;-68
2023/04/05 08:50:50;;;;;;;7.30;6.60;;;10.90;60.10;;;;;;4994471;28;20434;-67
2023/04/05 08:53:15;;;;;;;7.40;6.80;;;10.30;60.30;;;;;;4982276;28;20435;-69
2023/04/05 08:55:41;;;;;;;7.73;7.00;;;10.40;61.20;;;;;;4997415;28;20453;-68
2023/04/05 08:58:12;;;;;;;7.60;6.83;;;10.70;60.40;;;;;;4989966;28;20583;-68
2023/04/05 09:00:39;;;;;;;8.30;7.47;;;10.80;60.20;;;;;;5003169;28;20675;-67
2023/04/05 09:03:06;;;;;;;7.40;6.80;;;11.10;59.90;;;;;;4995432;28;21048;-68
2023/04/05 09:05:32;;;;;;;6.30;5.73;;;11.40;56.80;;;;;;4992465;28;20474;-69
2023/04/05 09:07:58;;;;;;;6.80;6.30;;;11.70;54.60;;;;;;4991786;28;20439;-67
2023/04/05 09:10:26;;;;;;;7.73;7.03;;;11.30;54.00;;;;;;4988086;28;20463;-68
2023/04/05 09:12:52;;;;;;;8.83;7.87;;;11.40;54.50;;;;;;4999194;28;20457;-69
2023/04/05 09:15:20;;;;;;;8.90;8.10;;;11.80;55.00;;;;;;4990508;28;20449;-69
2023/04/05 09:17:46;;;;;;;8.47;7.77;;;11.20;56.00;;;;;;4987029;28;20520;-69
2023/04/05 09:20:12;;;;;;;11.13;8.90;;;11.30;55.80;;;;;;4990261;28;21033;-68
2023/04/05 09:22:44;;;;;;;9.23;8.37;;;11.80;54.60;;;;;;4987260;28;20442;-68
2023/04/05 09:25:30;;;;;;;9.57;8.67;;;12.50;53.60;;;;;;4990921;28;20208;-67
2023/04/05 09:27:57;;;;;;;9.57;8.37;;;12.80;51.80;;;;;;4980075;28;20442;-67
2023/04/05 09:30:24;;;;;;;9.30;8.47;;;12.90;51.50;;;;;;4991362;28;20447;-69
2023/04/05 09:32:51;;;;;;;8.00;7.40;;;13.10;52.00;;;;;;4991371;28;20442;-68
2023/04/05 09:35:21;;;;;;;7.90;7.20;;;13.50;51.50;;;;;;4990304;28;20442;-69
2023/04/05 09:37:54;;;;;;;8.57;7.87;;;14.00;50.40;;;;;;4990297;28;20449;-69
2023/04/05 09:40:20;;;;;;;7.80;6.50;;;14.10;48.50;;;;;;4995145;28;20954;-69
2023/04/05 09:42:46;;;;;;;8.53;7.70;;;14.70;48.00;;;;;;4991965;28;20474;-67
2023/04/05 09:45:13;;;;;;;8.60;7.90;;;15.50;46.90;;;;;;4992720;28;20582;-69
2023/04/05 09:47:40;;;;;;;7.37;6.77;;;14.50;45.50;;;;;;4997228;28;20458;-68
2023/04/05 09:50:18;;;;;;;8.40;7.60;;;14.20;47.10;;;;;;4999873;28;20435;-69
2023/04/05 09:52:44;;;;;;;10.17;9.17;;;14.00;47.00;;;;;;4995732;28;20441;-70
2023/04/05 09:55:10;;;;;;;7.70;6.90;;;14.50;46.10;;;;;;5000896;28;20442;-69
2023/04/05 09:57:37;;;;;;;7.70;7.10;;;15.90;45.20;;;;;;4992788;28;20462;-69
2023/04/05 10:00:04;;;;;;;8.70;7.90;;;16.90;43.60;;;;;;4996053;28;20470;-69
2023/04/05 10:02:38;;;;;;;7.30;6.80;;;17.00;40.40;;;;;;4997539;28;20444;-67
2023/04/05 10:05:14;;;;;;;8.80;8.00;;;15.30;41.40;;;;;;4992501;28;20900;-67
2023/04/05 10:07:41;;;;;;;8.93;8.03;;;14.30;43.30;;;;;;4995796;28;20461;-70
2023/04/05 10:10:09;;;;;;;11.67;8.87;;;15.40;44.30;;;;;;4989917;28;20434;-68
2023/04/05 10:12:40;;;;;;;10.07;8.97;;;16.80;42.60;;;;;;4998344;28;20912;-68
2023/04/05 10:15:06;;;;;;;8.97;8.07;;;17.90;40.60;;;;;;4992829;28;20508;-69
2023/04/05 10:17:48;;;;;;;8.53;7.83;;;19.10;38.50;;;;;;4986295;28;20462;-69
2023/04/05 10:20:19;;;;;;;18.07;16.60;;;19.20;36.60;;;;;;4988145;28;20446;-68
2023/04/05 10:22:50;;;;;;;11.40;10.50;;;19.60;36.20;;;;;;4981915;28;20450;-69
2023/04/05 10:25:51;;;;;;;8.93;8.23;;;19.90;35.80;;;;;;4984577;28;20850;-68
2023/04/05 10:28:32;;;;;;;15.53;14.23;;;18.80;35.90;;;;;;4976040;28;20458;-69
2023/04/05 10:31:11;;;;;;;11.30;10.47;;;18.40;36.70;;;;;;4991016;28;20438;-69
2023/04/05 10:33:46;;;;;;;9.20;8.40;;;19.50;35.30;;;;;;4986441;28;20431;-69
2023/04/05 10:36:17;;;;;;;8.77;8.07;;;19.00;34.80;;;;;;4986733;28;20477;-69
2023/04/05 10:38:45;;;;;;;9.30;8.60;;;17.80;35.60;;;;;;4984107;28;20443;-69
2023/04/05 10:41:15;;;;;;;8.53;7.77;;;18.60;35.90;;;;;;4988723;28;20439;-70
2023/04/05 10:43:41;;;;;;;10.57;9.47;;;17.80;35.90;;;;;;4981302;28;20467;-69
2023/04/05 10:46:09;;;;;;;9.80;8.90;;;17.80;36.20;;;;;;4991762;28;20458;-69
2023/04/05 10:48:55;;;;;;;10.40;9.20;;;18.30;35.80;;;;;;4985370;28;20427;-69
2023/04/05 10:51:28;;;;;;;9.67;9.03;;;19.20;34.90;;;;;;4981508;28;20430;-69
2023/04/05 10:53:55;;;;;;;9.90;9.10;;;20.80;34.20;;;;;;4990741;28;20473;-69
2023/04/05 10:56:21;;;;;;;10.40;9.63;;;22.30;31.90;;;;;;4989101;28;20454;-68
2023/04/05 10:58:48;;;;;;;9.57;8.60;;;22.60;31.60;;;;;;4988508;28;22051;-68
2023/04/05 11:01:16;;;;;;;9.30;8.60;;;22.40;30.20;;;;;;4993752;28;20799;-67
2023/04/05 11:03:46;;;;;;;9.40;8.70;;;22.50;29.60;;;;;;4988934;28;20939;-67
2023/04/05 11:06:21;;;;;;;9.47;8.30;;;23.20;29.30;;;;;;4991701;28;20459;-69
2023/04/05 11:08:48;;;;;;;8.70;8.00;;;24.20;28.80;;;;;;4991642;28;20488;-68
2023/04/05 11:11:16;;;;;;;8.90;8.10;;;24.50;27.80;;;;;;4995619;28;20442;-67
2023/04/05 11:13:53;;;;;;;9.57;8.83;;;24.30;27.70;;;;;;4991983;28;20517;-68
2023/04/05 11:16:20;;;;;;;8.40;7.90;;;24.70;27.30;;;;;;4990326;28;20457;-68
2023/04/05 11:18:48;;;;;;;8.70;8.10;;;23.00;27.90;;;;;;4991832;28;20433;-68
2023/04/05 11:21:25;;;;;;;10.13;9.33;;;23.00;28.00;;;;;;4986625;28;20501;-67
2023/04/05 11:24:10;;;;;;;9.27;8.47;;;24.10;27.50;;;;;;4985943;28;20821;-68
2023/04/05 11:26:38;;;;;;;11.40;9.07;;;24.50;27.20;;;;;;4988708;28;20462;-68
2023/04/05 11:29:04;;;;;;;8.33;7.60;;;24.40;27.30;;;;;;4993253;28;20911;-68
2023/04/05 11:31:30;;;;;;;9.60;8.80;;;24.60;26.20;;;;;;4991986;28;20510;-68
2023/04/05 11:33:58;;;;;;;9.70;9.00;;;22.90;27.70;;;;;;4989559;28;20179;-68
2023/04/05 11:36:46;;;;;;;8.70;8.00;;;22.90;27.70;;;;;;4981334;28;20219;-68
2023/04/05 11:39:18;;;;;;;9.83;9.03;;;23.50;27.90;;;;;;4988822;28;20439;-69
2023/04/05 11:42:01;;;;;;;9.80;9.00;;;21.50;27.70;;;;;;4980148;28;20434;-68
2023/04/05 11:44:47;;;;;;;10.20;9.30;;;19.90;28.50;;;;;;4988865;28;20498;-69
2023/04/05 11:47:16;;;;;;;10.00;9.20;;;20.80;28.90;;;;;;4990071;28;20454;-68
2023/04/05 11:49:41;;;;;;;9.67;8.77;;;20.90;28.50;;;;;;4984073;28;20473;-68
2023/04/05 11:52:11;;;;;;;9.77;8.97;;;23.70;27.30;;;;;;4984803;28;20435;-68
2023/04/05 11:54:36;;;;;;;9.77;8.87;;;25.00;26.10;;;;;;4986349;28;20192;-68
2023/04/05 11:57:02;;;;;;;8.17;7.60;;;25.60;25.50;;;;;;4982392;28;20792;-69
2023/04/05 11:59:35;;;;;;;8.97;8.23;;;23.80;25.50;;;;;;4997339;28;20225;-69
2023/04/05 12:02:03;;;;;;;9.97;9.20;;;22.40;27.40;;;;;;4996329;28;20190;-68
2023/04/05 12:04:29;;;;;;;9.50;8.83;;;23.70;26.40;;;;;;4985038;28;20887;-67
2023/04/05 12:07:15;;;;;;;10.20;9.47;;;23.70;25.80;;;;;;4986913;28;20454;-68
2023/04/05 12:10:07;;;;;;;9.80;9.00;;;24.90;25.90;;;;;;4984198;28;20588;-68
2023/04/05 12:12:34;;;;;;;8.50;7.90;;;25.80;25.40;;;;;;4983530;28;20526;-69
2023/04/05 12:15:01;;;;;;;9.10;8.50;;;25.80;24.80;;;;;;4988408;28;20447;-68
2023/04/05 12:17:43;;;;;;;9.40;8.70;;;25.30;25.00;;;;;;4996800;28;20816;-73
2023/04/05 12:20:11;;;;;;;8.50;7.90;;;25.10;25.30;;;;;;4990631;28;20963;-69
2023/04/05 12:22:37;;;;;;;8.60;8.00;;;25.40;25.00;;;;;;4990397;28;20431;-68
2023/04/05 12:25:03;;;;;;;9.60;8.90;;;24.70;24.90;;;;;;4987573;28;20509;-68
2023/04/05 12:27:29;;;;;;;8.50;7.90;;;25.60;24.50;;;;;;4991323;28;20872;-69
2023/04/05 12:30:07;;;;;;;9.17;8.47;;;26.70;23.80;;;;;;4985935;28;20443;-69
2023/04/05 12:32:54;;;;;;;8.40;7.80;;;26.60;23.70;;;;;;4987374;28;20175;-69
2023/04/05 12:35:31;;;;;;;9.03;8.27;;;25.10;23.90;;;;;;4988826;28;22304;-68
2023/04/05 12:37:58;;;;;;;8.73;7.87;;;24.10;24.60;;;;;;4987370;28;20529;-68
2023/04/05 12:40:23;;;;;;;8.27;7.63;;;23.90;25.20;;;;;;4983828;28;20445;-68
2023/04/05 12:42:50;;;;;;;8.33;7.67;;;24.70;24.20;;;;;;4990659;28;20427;-69
2023/04/05 12:45:17;;;;;;;8.37;7.67;;;24.30;24.50;;;;;;4989429;28;20234;-69
2023/04/05 12:48:12;;;;;;;8.53;7.30;;;23.90;25.20;;;;;;4989138;28;20514;-69
2023/04/05 12:50:43;;;;;;;7.97;7.43;;;24.70;24.70;;;;;;4982715;28;20956;-69
2023/04/05 12:53:19;;;;;;;8.73;8.03;;;25.00;24.30;;;;;;4990359;28;20470;-68